Imagination — C6FN2 — position and weather

sailwx.info

Track history (hours):
 
Tides and Currents Weather Stations Pressure Air Temp Water Temp Dewpoint Dewpoint Depression Visibility Wind Speed Wind Dir Waves Ship Positions

Imagination

Operator: Carnival Cruise Lines

Last reported at 2018-Apr-26 07:30 UTC. Time now 2018-Apr-26 07:54 UTC.
Position N 33°11' W 117°58'.

Type: Ship. MMSI: 309933000.

Date/timePositionNaut miles runAvg speedWind from/ knotsBaromVisibWave heightAir tempDewpointWater temp
2018-Apr-26 07:30N 33°11' W 117°58'4 7.1
2018-Apr-26 07:00N 33°08' W 117°57'4 7.5
2018-Apr-26 06:30N 33°05' W 117°55'4 7.3
2018-Apr-26 06:00N 33°01' W 117°53'4 7.4
2018-Apr-26 05:31N 32°58' W 117°50'4 8.2
2018-Apr-26 05:00N 32°54' W 117°48'4 8.0
2018-Apr-26 04:29N 32°50' W 117°48'4 7.8
2018-Apr-26 04:00N 32°46' W 117°48'296.3
2018-Apr-26 04:00N 32°48' W 117°48'510.3 300 / 81019.010.8 15.011.614.0
2018-Apr-26 03:30N 32°43' W 117°47'4 7.3
2018-Apr-26 03:00N 32°40' W 117°45'3 7.0
2018-Apr-26 02:30N 32°37' W 117°43'3 6.8
2018-Apr-26 02:00N 32°34' W 117°46'3 6.7
2018-Apr-26 01:30N 32°30' W 117°46'4 7.1
2018-Apr-26 01:00N 32°27' W 117°46'4 7.3
2018-Apr-26 00:30N 32°23' W 117°46'4 7.4
2018-Apr-25 23:56N 32°19' W 117°45'4 7.2
2018-Apr-25 23:22N 32°15' W 117°45'28 5.9
2018-Apr-25 18:40N 31°48' W 117°52'14 5.1
2018-Apr-25 16:00N 31°36' W 118°00'619.9 280 / 81021.010.8 15.0 9.714.0
2018-Apr-25 15:41N 31°41' W 118°04'3 8.2
2018-Apr-25 15:21N 31°43' W 118°06'3 7.6
2018-Apr-25 15:00N 31°45' W 118°09'3 6.0
2018-Apr-25 14:27N 31°45' W 118°13'3 6.3
2018-Apr-25 14:00N 31°42' W 118°12'15 5.1 350 / 71022.310.8 14.010.516.0
2018-Apr-25 11:00N 31°33' W 117°57'3 6.3
2018-Apr-25 10:29N 31°35' W 117°54'3 6.7
2018-Apr-25 10:00N 31°37' W 117°51'3 6.7
2018-Apr-25 09:30N 31°39' W 117°48'29 6.9
2018-Apr-25 05:14N 31°43' W 117°14'2 8.6
2018-Apr-25 05:00N 31°43' W 117°11'5 9.0
2018-Apr-25 04:29N 31°47' W 117°08'94190.5
2018-Apr-25 04:00N 32°36' W 118°42'113 8.0 350 / 101018.010.8 14.010.514.0
2018-Apr-24 13:51N 31°50' W 116°41'3 7.9
2018-Apr-24 13:30N 31°50' W 116°44'4 8.1
2018-Apr-24 13:00N 31°53' W 116°48'6 8.6
2018-Apr-24 12:15N 31°55' W 116°55'2 9.1
2018-Apr-24 11:58N 31°56' W 116°58'4 8.7
2018-Apr-24 11:28N 31°57' W 117°03'4 8.7
2018-Apr-24 10:57N 31°58' W 117°08'4 8.8
2018-Apr-24 10:30N 31°58' W 117°12'7 8.6
2018-Apr-24 09:44N 32°03' W 117°19'2 9.1
2018-Apr-24 09:30N 32°04' W 117°20'5 9.4
2018-Apr-24 09:00N 32°07' W 117°24'5 9.5
2018-Apr-24 08:30N 32°10' W 117°29'5 9.1
2018-Apr-24 08:00N 32°14' W 117°32'5 9.4
2018-Apr-24 07:30N 32°17' W 117°36'5 9.2
2018-Apr-24 07:00N 32°20' W 117°40'5 9.4
2018-Apr-24 06:30N 32°24' W 117°43'5 9.9
2018-Apr-24 06:00N 32°29' W 117°45'510.0
2018-Apr-24 05:30N 32°34' W 117°47'5 9.8
2018-Apr-24 05:00N 32°38' W 117°48'5 9.7
2018-Apr-24 04:30N 32°43' W 117°49'5 9.9
2018-Apr-24 04:00N 32°48' W 117°50'6526.1
2018-Apr-24 04:00N 32°42' W 117°48'1123.1 340 / 71018.010.8 14.012.314.0
2018-Apr-24 03:30N 32°53' W 117°50'510.0
2018-Apr-24 03:00N 32°57' W 117°53'5 9.7
2018-Apr-24 02:30N 33°01' W 117°57'5 9.8
2018-Apr-24 02:01N 33°05' W 118°01'5 9.8
2018-Apr-24 01:30N 33°09' W 118°05'5 9.6
2018-Apr-24 01:00N 33°12' W 118°08'5 9.8
2018-Apr-24 00:30N 33°16' W 118°12'5 9.9
2018-Apr-24 00:00N 33°19' W 118°17'3 4.6
2018-Apr-23 23:28N 33°21' W 118°19'0 0.1
2018-Apr-23 23:00N 33°21' W 118°19'0 0.0
2018-Apr-23 22:30N 33°21' W 118°19'0 0.1
2018-Apr-23 22:00N 33°21' W 118°19'0 0.1
2018-Apr-23 21:30N 33°21' W 118°19'0 0.0
2018-Apr-23 20:59N 33°21' W 118°19'0 0.0
2018-Apr-23 20:30N 33°21' W 118°19'0 0.0
2018-Apr-23 20:00N 33°21' W 118°19'0 0.0
2018-Apr-23 19:30N 33°21' W 118°19'0 0.1
2018-Apr-23 19:00N 33°21' W 118°19'0 0.1
2018-Apr-23 18:30N 33°21' W 118°19'0 0.0
2018-Apr-23 18:00N 33°21' W 118°19'0 0.1
2018-Apr-23 17:30N 33°21' W 118°19'0 0.1
2018-Apr-23 16:59N 33°21' W 118°19'0 0.1
2018-Apr-23 16:30N 33°21' W 118°19'0 0.0
2018-Apr-23 15:59N 33°21' W 118°19'0 0.0
2018-Apr-23 15:27N 33°21' W 118°19'0 0.0
2018-Apr-23 15:00N 33°21' W 118°19'0 0.0
2018-Apr-23 14:29N 33°21' W 118°19'0 0.6
2018-Apr-23 14:00N 33°21' W 118°19'3 6.3
2018-Apr-23 13:29N 33°18' W 118°17'3 6.9
2018-Apr-23 13:00N 33°15' W 118°17'4 8.0
2018-Apr-23 12:30N 33°11' W 118°17'4 8.1
2018-Apr-23 11:59N 33°06' W 118°16'3 7.1
2018-Apr-23 11:30N 33°03' W 118°15'4 7.7
2018-Apr-23 11:00N 33°01' W 118°11'4 7.9
2018-Apr-23 10:30N 32°58' W 118°08'4 7.9
2018-Apr-23 10:00N 32°56' W 118°04'4 8.1
2018-Apr-23 09:30N 32°53' W 118°01'4 7.7
2018-Apr-23 09:00N 32°53' W 117°56'4 7.2
2018-Apr-23 08:30N 32°57' W 117°56'4 8.0
2018-Apr-23 08:01N 33°00' W 117°58'4 8.1
2018-Apr-23 07:30N 33°04' W 117°59'5 9.3
2018-Apr-23 07:00N 33°09' W 118°01'5 9.3
2018-Apr-23 06:30N 33°13' W 118°03'611.4
2018-Apr-23 06:00N 33°18' W 118°06'611.4
2018-Apr-23 05:30N 33°24' W 118°08'611.4
2018-Apr-23 05:00N 33°29' W 118°10'7482.8
2018-Apr-23 05:00N 33°36' W 118°12'1 3.1 180 / 101017.010.8 15.011.614.0
2018-Apr-23 04:30N 33°35' W 118°13'611.6
2018-Apr-23 04:00N 33°40' W 118°12'5 9.3
2018-Apr-23 03:30N 33°45' W 118°11'0 0.2
2018-Apr-23 03:00N 33°45' W 118°11'0 0.0
2018-Apr-23 02:30N 33°45' W 118°11'0 0.0
2018-Apr-23 01:59N 33°45' W 118°11'0 0.0
2018-Apr-23 01:29N 33°45' W 118°11'0 0.0
2018-Apr-23 00:59N 33°45' W 118°11'0 0.0
2018-Apr-23 00:26N 33°45' W 118°11'0 0.0
2018-Apr-22 23:58N 33°45' W 118°11'0 0.0
2018-Apr-22 23:28N 33°45' W 118°11'0 0.0
2018-Apr-22 22:58N 33°45' W 118°11'0 0.0
2018-Apr-22 22:28N 33°45' W 118°11'0 0.0
2018-Apr-22 21:58N 33°45' W 118°11'0 0.0
2018-Apr-22 21:30N 33°45' W 118°11'0 0.0
2018-Apr-22 21:00N 33°45' W 118°11'0 0.0
2018-Apr-22 20:30N 33°45' W 118°11'0 0.0
2018-Apr-22 20:00N 33°45' W 118°11'0 0.0
2018-Apr-22 19:29N 33°45' W 118°11'0 0.0
2018-Apr-22 18:59N 33°45' W 118°11'0 0.0
2018-Apr-22 18:29N 33°45' W 118°11'0 0.0
2018-Apr-22 17:59N 33°45' W 118°11'0 0.0
2018-Apr-22 17:29N 33°45' W 118°11'0 0.0
2018-Apr-22 16:58N 33°45' W 118°11'0 0.0
2018-Apr-22 16:28N 33°45' W 118°11'0 0.0
2018-Apr-22 15:58N 33°45' W 118°11'0 0.0
2018-Apr-22 15:25N 33°45' W 118°11'0 0.0
2018-Apr-22 14:55N 33°45' W 118°11'0 0.0
2018-Apr-22 14:30N 33°45' W 118°11'0 0.0
2018-Apr-22 14:00N 33°45' W 118°11'0 0.0
2018-Apr-22 13:27N 33°45' W 118°11'0 0.0
2018-Apr-22 13:00N 33°45' W 118°11'0 0.4
2018-Apr-22 12:30N 33°45' W 118°11'3 5.3
2018-Apr-22 12:00N 33°42' W 118°11'510.5
2018-Apr-22 11:30N 33°37' W 118°10'611.4
2018-Apr-22 11:00N 33°32' W 118°08'611.3
2018-Apr-22 10:30N 33°26' W 118°05'510.7
2018-Apr-22 10:00N 33°21' W 118°03'612.1
2018-Apr-22 09:30N 33°16' W 118°00'714.2
2018-Apr-22 09:00N 33°09' W 117°57'714.4
2018-Apr-22 08:30N 33°03' W 117°54'714.3
2018-Apr-22 07:59N 32°56' W 117°51'714.5
2018-Apr-22 07:31N 32°49' W 117°49'714.2
2018-Apr-22 07:00N 32°42' W 117°47'714.3
2018-Apr-22 06:30N 32°35' W 117°45'714.0
2018-Apr-22 06:00N 32°28' W 117°42'713.9
2018-Apr-22 05:30N 32°23' W 117°38'714.4
2018-Apr-22 04:59N 32°17' W 117°32'713.9
2018-Apr-22 04:29N 32°12' W 117°26'815.5
2018-Apr-22 04:00N 32°07' W 117°19'2194.1
2018-Apr-22 04:00N 32°06' W 117°18'612.9 330 / 151017.010.8 15.013.313.0
2018-Apr-22 03:30N 32°03' W 117°12'815.6
2018-Apr-22 03:00N 31°59' W 117°04'915.7
2018-Apr-22 02:26N 31°55' W 116°54'615.3
2018-Apr-22 02:00N 31°52' W 116°47'10 0.7
2018-Apr-21 11:22N 31°51' W 116°59'7 7.3
2018-Apr-21 10:22N 31°49' W 117°07'3 7.3
2018-Apr-21 10:00N 31°48' W 117°10'4 7.1
2018-Apr-21 09:30N 31°47' W 117°14'4 7.3
2018-Apr-21 09:00N 31°46' W 117°18'4 7.2
2018-Apr-21 08:30N 31°45' W 117°22'9 7.4
2018-Apr-21 07:13N 31°43' W 117°33'8 7.0
2018-Apr-21 06:08N 31°41' W 117°42'1 7.0
2018-Apr-21 06:00N 31°41' W 117°43'4 8.0
2018-Apr-21 05:29N 31°39' W 117°47'4 7.8
2018-Apr-21 05:00N 31°37' W 117°51'4 7.9
2018-Apr-21 04:29N 31°34' W 117°54'4 7.6
2018-Apr-21 04:00N 31°31' W 117°57'3283.3
2018-Apr-21 04:00N 31°30' W 117°54'5 9.5 320 / 201019.010.8 15.011.614.0
2018-Apr-21 03:30N 31°28' W 117°59'4 7.4
2018-Apr-21 03:00N 31°25' W 118°01'4 7.2
2018-Apr-21 02:30N 31°21' W 118°03'3 6.4
2018-Apr-21 02:00N 31°19' W 118°05'5 6.6
2018-Apr-21 01:19N 31°23' W 118°08'2 7.4
2018-Apr-21 01:00N 31°24' W 118°06'345.3 300 / 181023.310.8 15.011.616.3
2018-Apr-21 00:55N 31°25' W 118°09'3 7.0
2018-Apr-21 00:30N 31°28' W 118°10'15 6.7
2018-Apr-20 22:15N 31°43' W 118°13'28 4.6
2018-Apr-20 16:00N 31°54' W 117°42'25 8.5 350 / 101021.010.8 14.010.514.0
2018-Apr-20 12:59N 32°19' W 117°46'3 6.9
2018-Apr-20 12:30N 32°22' W 117°47'4 6.9
2018-Apr-20 11:58N 32°26' W 117°47'3 7.0
2018-Apr-20 11:30N 32°29' W 117°47'3 6.9
2018-Apr-20 11:00N 32°33' W 117°48'3 6.7
2018-Apr-20 10:30N 32°36' W 117°48'3 6.8
2018-Apr-20 10:00N 32°39' W 117°49'3 6.8
2018-Apr-20 09:30N 32°43' W 117°51'3 6.7
2018-Apr-20 09:00N 32°46' W 117°52'3 6.8
2018-Apr-20 08:30N 32°49' W 117°53'4 6.7
2018-Apr-20 07:58N 32°52' W 117°55'3 6.8
2018-Apr-20 07:30N 32°55' W 117°56'3 6.6
2018-Apr-20 07:00N 32°58' W 117°57'3 6.6
2018-Apr-20 06:30N 33°02' W 117°59'3 6.6
2018-Apr-20 06:00N 33°05' W 117°60'3 6.6
2018-Apr-20 05:30N 33°08' W 118°01'4 7.0
2018-Apr-20 05:00N 33°11' W 118°03'3 7.0
2018-Apr-20 04:30N 33°14' W 118°04'5 9.6
2018-Apr-20 04:00N 33°18' W 118°00'1611.0 250 / 61019.010.8 13.0 9.413.0
2018-Apr-20 02:32N 33°31' W 118°11'1 9.4
2018-Apr-20 02:29N 33°31' W 118°12'5 9.9
2018-Apr-20 02:01N 33°36' W 118°13'5 9.5
2018-Apr-20 01:31N 33°41' W 118°12'4 8.7
2018-Apr-20 01:00N 33°45' W 118°11'0 0.5
2018-Apr-20 00:25N 33°45' W 118°11'0 0.0
2018-Apr-19 23:55N 33°45' W 118°11'0 0.0
2018-Apr-19 23:28N 33°45' W 118°11'0 0.0
2018-Apr-19 22:51N 33°45' W 118°11'0 0.0
2018-Apr-19 22:30N 33°45' W 118°11'0 0.0
2018-Apr-19 21:55N 33°45' W 118°11'0 0.0
2018-Apr-19 21:30N 33°45' W 118°11'0 0.0
2018-Apr-19 20:17N 33°45' W 118°11'0 0.0
2018-Apr-19 19:50N 33°45' W 118°11'0 0.0
2018-Apr-19 19:23N 33°45' W 118°11'0 0.0
2018-Apr-19 18:56N 33°45' W 118°11'0 0.0
2018-Apr-19 18:22N 33°45' W 118°11'0 0.0
2018-Apr-19 17:58N 33°45' W 118°11'0 0.0
2018-Apr-19 16:06N 33°45' W 118°11'0 0.0
2018-Apr-19 15:54N 33°45' W 118°11'0 0.0
2018-Apr-19 15:30N 33°45' W 118°11'0 0.0
2018-Apr-19 15:00N 33°45' W 118°11'0 0.0
2018-Apr-19 14:27N 33°45' W 118°11'0 0.0
2018-Apr-19 13:54N 33°45' W 118°11'0 0.0
2018-Apr-19 13:26N 33°45' W 118°11'0 0.0
2018-Apr-19 13:00N 33°45' W 118°11'0 0.6
2018-Apr-19 12:30N 33°45' W 118°11'3 6.4
2018-Apr-19 12:00N 33°42' W 118°11'4 8.5
2018-Apr-19 11:30N 33°37' W 118°10'4 7.8
2018-Apr-19 11:00N 33°34' W 118°09'3 6.5
2018-Apr-19 10:30N 33°31' W 118°07'3 6.5
2018-Apr-19 10:00N 33°28' W 118°06'3 7.0
2018-Apr-19 09:30N 33°24' W 118°05'4 6.9
2018-Apr-19 08:55N 33°21' W 118°03'3 6.9
2018-Apr-19 08:30N 33°18' W 118°01'3 6.9
2018-Apr-19 08:00N 33°15' W 117°60'3 6.8
2018-Apr-19 07:30N 33°12' W 117°58'4 7.0
2018-Apr-19 07:00N 33°09' W 117°56'3 6.9
2018-Apr-19 06:30N 33°05' W 117°55'4 7.1
2018-Apr-19 06:00N 33°02' W 117°55'4 7.1
2018-Apr-19 05:30N 32°59' W 117°53'4 7.2
2018-Apr-19 05:00N 32°55' W 117°51'4 7.5
2018-Apr-19 04:30N 32°52' W 117°49'4 7.6
2018-Apr-19 04:00N 32°48' W 117°48'032.6
2018-Apr-19 04:00N 32°48' W 117°48'4 7.5 300 / 201019.010.8 13.0 9.415.0
2018-Apr-19 03:30N 32°44' W 117°48'4 7.8
2018-Apr-19 02:58N 32°40' W 117°47'6 7.8
2018-Apr-19 02:09N 32°34' W 117°46'10 7.8
2018-Apr-19 00:50N 32°24' W 117°45'4 7.7
2018-Apr-19 00:21N 32°20' W 117°45'7 7.6
2018-Apr-18 23:29N 32°13' W 117°45'4 7.6
2018-Apr-18 22:57N 32°09' W 117°45'14 7.5
2018-Apr-18 21:09N 31°56' W 117°43'8 6.5
2018-Apr-18 19:53N 31°48' W 117°44'18 4.6
2018-Apr-18 16:00N 31°36' W 118°00'1311.1 280 / 151021.010.8 15.011.615.0
2018-Apr-18 14:48N 31°46' W 118°10'3 7.3
2018-Apr-18 14:27N 31°46' W 118°13'1940.7
2018-Apr-18 14:00N 31°36' W 117°54'1511.3 270 / 201022.310.8 16.010.816.0
2018-Apr-18 12:41N 31°34' W 118°11'1 6.5
2018-Apr-18 12:30N 31°33' W 118°10'5 6.8
2018-Apr-18 11:50N 31°33' W 118°05'3 6.7
2018-Apr-18 11:26N 31°33' W 118°01'6 6.8
2018-Apr-18 10:36N 31°34' W 117°55'1 6.6
2018-Apr-18 10:30N 31°34' W 117°54'48 7.4
2018-Apr-18 04:00N 31°48' W 117°00'46 2.2 350 / 251019.010.8 13.0 7.415.0
2018-Apr-17 06:50N 32°20' W 117°40'3 9.7
2018-Apr-17 06:30N 32°23' W 117°41'5 9.6
2018-Apr-17 06:00N 32°27' W 117°43'5 9.5
2018-Apr-17 05:30N 32°32' W 117°46'5 9.4
2018-Apr-17 05:00N 32°36' W 117°47'5 9.5
2018-Apr-17 04:30N 32°41' W 117°48'5 9.4
2018-Apr-17 04:00N 32°45' W 117°49'3229.6
2018-Apr-17 04:00N 32°42' W 117°48'816.5 320 / 301023.010.8 13.0 7.415.0
2018-Apr-17 03:30N 32°50' W 117°51'5 9.6
2018-Apr-17 03:00N 32°54' W 117°54'5 9.4
2018-Apr-17 02:30N 32°58' W 117°56'5 9.5
2018-Apr-17 02:00N 33°02' W 117°58'510.1
2018-Apr-17 01:29N 33°06' W 118°03'510.0
2018-Apr-17 01:00N 33°10' W 118°06'610.1
2018-Apr-17 00:27N 33°14' W 118°11'10 1.1
2018-Apr-16 15:53N 33°21' W 118°19'0 0.1
2018-Apr-16 15:26N 33°21' W 118°19'0 0.0
2018-Apr-16 14:16N 33°21' W 118°19'1 3.0
2018-Apr-16 13:51N 33°20' W 118°18'15 6.6
2018-Apr-16 11:38N 33°06' W 118°17'1 6.9
2018-Apr-16 11:27N 33°05' W 118°16'3 6.8
2018-Apr-16 11:00N 33°03' W 118°13'3 6.9
2018-Apr-16 10:30N 33°00' W 118°10'3 7.0
2018-Apr-16 10:00N 32°58' W 118°07'4 7.1
2018-Apr-16 09:30N 32°56' W 118°04'3 7.0
2018-Apr-16 09:00N 32°53' W 118°01'3 6.0
2018-Apr-16 08:26N 32°52' W 117°57'3 6.4
2018-Apr-16 08:00N 32°54' W 117°55'  
Track history (hours):
 
Tides and Currents Weather Stations Pressure Air Temp Water Temp Dewpoint Dewpoint Depression Visibility Wind Speed Wind Dir Waves Ship Positions

Imagination

Operator: Carnival Cruise Lines

Last reported at 2018-Apr-26 07:30 UTC. Time now 2018-Apr-26 07:54 UTC.
Position N 33°11' W 117°58'.

Type: Ship. MMSI: 309933000.

Date/timePositionNaut miles runAvg speedWind from/ knotsBaromVisibWave heightAir tempDewpointWater temp
2018-Apr-26 07:30N 33°11' W 117°58'4 7.1
2018-Apr-26 07:00N 33°08' W 117°57'4 7.5
2018-Apr-26 06:30N 33°05' W 117°55'4 7.3
2018-Apr-26 06:00N 33°01' W 117°53'4 7.4
2018-Apr-26 05:31N 32°58' W 117°50'4 8.2
2018-Apr-26 05:00N 32°54' W 117°48'4 8.0
2018-Apr-26 04:29N 32°50' W 117°48'4 7.8
2018-Apr-26 04:00N 32°46' W 117°48'296.3
2018-Apr-26 04:00N 32°48' W 117°48'510.3 300 / 81019.010.8 15.011.614.0
2018-Apr-26 03:30N 32°43' W 117°47'4 7.3
2018-Apr-26 03:00N 32°40' W 117°45'3 7.0
2018-Apr-26 02:30N 32°37' W 117°43'3 6.8
2018-Apr-26 02:00N 32°34' W 117°46'3 6.7
2018-Apr-26 01:30N 32°30' W 117°46'4 7.1
2018-Apr-26 01:00N 32°27' W 117°46'4 7.3
2018-Apr-26 00:30N 32°23' W 117°46'4 7.4
2018-Apr-25 23:56N 32°19' W 117°45'4 7.2
2018-Apr-25 23:22N 32°15' W 117°45'28 5.9
2018-Apr-25 18:40N 31°48' W 117°52'14 5.1
2018-Apr-25 16:00N 31°36' W 118°00'619.9 280 / 81021.010.8 15.0 9.714.0
2018-Apr-25 15:41N 31°41' W 118°04'3 8.2
2018-Apr-25 15:21N 31°43' W 118°06'3 7.6
2018-Apr-25 15:00N 31°45' W 118°09'3 6.0
2018-Apr-25 14:27N 31°45' W 118°13'3 6.3
2018-Apr-25 14:00N 31°42' W 118°12'15 5.1 350 / 71022.310.8 14.010.516.0
2018-Apr-25 11:00N 31°33' W 117°57'3 6.3
2018-Apr-25 10:29N 31°35' W 117°54'3 6.7
2018-Apr-25 10:00N 31°37' W 117°51'3 6.7
2018-Apr-25 09:30N 31°39' W 117°48'29 6.9
2018-Apr-25 05:14N 31°43' W 117°14'2 8.6
2018-Apr-25 05:00N 31°43' W 117°11'5 9.0
2018-Apr-25 04:29N 31°47' W 117°08'94190.5
2018-Apr-25 04:00N 32°36' W 118°42'113 8.0 350 / 101018.010.8 14.010.514.0
2018-Apr-24 13:51N 31°50' W 116°41'3 7.9
2018-Apr-24 13:30N 31°50' W 116°44'4 8.1
2018-Apr-24 13:00N 31°53' W 116°48'6 8.6
2018-Apr-24 12:15N 31°55' W 116°55'2 9.1
2018-Apr-24 11:58N 31°56' W 116°58'4 8.7
2018-Apr-24 11:28N 31°57' W 117°03'4 8.7
2018-Apr-24 10:57N 31°58' W 117°08'4 8.8
2018-Apr-24 10:30N 31°58' W 117°12'7 8.6
2018-Apr-24 09:44N 32°03' W 117°19'2 9.1
2018-Apr-24 09:30N 32°04' W 117°20'5 9.4
2018-Apr-24 09:00N 32°07' W 117°24'5 9.5
2018-Apr-24 08:30N 32°10' W 117°29'5 9.1
2018-Apr-24 08:00N 32°14' W 117°32'5 9.4
2018-Apr-24 07:30N 32°17' W 117°36'5 9.2
2018-Apr-24 07:00N 32°20' W 117°40'5 9.4
2018-Apr-24 06:30N 32°24' W 117°43'5 9.9
2018-Apr-24 06:00N 32°29' W 117°45'510.0
2018-Apr-24 05:30N 32°34' W 117°47'5 9.8
2018-Apr-24 05:00N 32°38' W 117°48'5 9.7
2018-Apr-24 04:30N 32°43' W 117°49'5 9.9
2018-Apr-24 04:00N 32°48' W 117°50'6526.1
2018-Apr-24 04:00N 32°42' W 117°48'1123.1 340 / 71018.010.8 14.012.314.0
2018-Apr-24 03:30N 32°53' W 117°50'510.0
2018-Apr-24 03:00N 32°57' W 117°53'5 9.7
2018-Apr-24 02:30N 33°01' W 117°57'5 9.8
2018-Apr-24 02:01N 33°05' W 118°01'5 9.8
2018-Apr-24 01:30N 33°09' W 118°05'5 9.6
2018-Apr-24 01:00N 33°12' W 118°08'5 9.8
2018-Apr-24 00:30N 33°16' W 118°12'5 9.9
2018-Apr-24 00:00N 33°19' W 118°17'3 4.6
2018-Apr-23 23:28N 33°21' W 118°19'0 0.1
2018-Apr-23 23:00N 33°21' W 118°19'0 0.0
2018-Apr-23 22:30N 33°21' W 118°19'0 0.1
2018-Apr-23 22:00N 33°21' W 118°19'0 0.1
2018-Apr-23 21:30N 33°21' W 118°19'0 0.0
2018-Apr-23 20:59N 33°21' W 118°19'0 0.0
2018-Apr-23 20:30N 33°21' W 118°19'0 0.0
2018-Apr-23 20:00N 33°21' W 118°19'0 0.0
2018-Apr-23 19:30N 33°21' W 118°19'0 0.1
2018-Apr-23 19:00N 33°21' W 118°19'0 0.1
2018-Apr-23 18:30N 33°21' W 118°19'0 0.0
2018-Apr-23 18:00N 33°21' W 118°19'0 0.1
2018-Apr-23 17:30N 33°21' W 118°19'0 0.1
2018-Apr-23 16:59N 33°21' W 118°19'0 0.1
2018-Apr-23 16:30N 33°21' W 118°19'0 0.0
2018-Apr-23 15:59N 33°21' W 118°19'0 0.0
2018-Apr-23 15:27N 33°21' W 118°19'0 0.0
2018-Apr-23 15:00N 33°21' W 118°19'0 0.0
2018-Apr-23 14:29N 33°21' W 118°19'0 0.6
2018-Apr-23 14:00N 33°21' W 118°19'3 6.3
2018-Apr-23 13:29N 33°18' W 118°17'3 6.9
2018-Apr-23 13:00N 33°15' W 118°17'4 8.0
2018-Apr-23 12:30N 33°11' W 118°17'4 8.1
2018-Apr-23 11:59N 33°06' W 118°16'3 7.1
2018-Apr-23 11:30N 33°03' W 118°15'4 7.7
2018-Apr-23 11:00N 33°01' W 118°11'4 7.9
2018-Apr-23 10:30N 32°58' W 118°08'4 7.9
2018-Apr-23 10:00N 32°56' W 118°04'4 8.1
2018-Apr-23 09:30N 32°53' W 118°01'4 7.7
2018-Apr-23 09:00N 32°53' W 117°56'4 7.2
2018-Apr-23 08:30N 32°57' W 117°56'4 8.0
2018-Apr-23 08:01N 33°00' W 117°58'4 8.1
2018-Apr-23 07:30N 33°04' W 117°59'5 9.3
2018-Apr-23 07:00N 33°09' W 118°01'5 9.3
2018-Apr-23 06:30N 33°13' W 118°03'611.4
2018-Apr-23 06:00N 33°18' W 118°06'611.4
2018-Apr-23 05:30N 33°24' W 118°08'611.4
2018-Apr-23 05:00N 33°29' W 118°10'7482.8
2018-Apr-23 05:00N 33°36' W 118°12'1 3.1 180 / 101017.010.8 15.011.614.0
2018-Apr-23 04:30N 33°35' W 118°13'611.6
2018-Apr-23 04:00N 33°40' W 118°12'5 9.3
2018-Apr-23 03:30N 33°45' W 118°11'0 0.2
2018-Apr-23 03:00N 33°45' W 118°11'0 0.0
2018-Apr-23 02:30N 33°45' W 118°11'0 0.0
2018-Apr-23 01:59N 33°45' W 118°11'0 0.0
2018-Apr-23 01:29N 33°45' W 118°11'0 0.0
2018-Apr-23 00:59N 33°45' W 118°11'0 0.0
2018-Apr-23 00:26N 33°45' W 118°11'0 0.0
2018-Apr-22 23:58N 33°45' W 118°11'0 0.0
2018-Apr-22 23:28N 33°45' W 118°11'0 0.0
2018-Apr-22 22:58N 33°45' W 118°11'0 0.0
2018-Apr-22 22:28N 33°45' W 118°11'0 0.0
2018-Apr-22 21:58N 33°45' W 118°11'0 0.0
2018-Apr-22 21:30N 33°45' W 118°11'0 0.0
2018-Apr-22 21:00N 33°45' W 118°11'0 0.0
2018-Apr-22 20:30N 33°45' W 118°11'0 0.0
2018-Apr-22 20:00N 33°45' W 118°11'0 0.0
2018-Apr-22 19:29N 33°45' W 118°11'0 0.0
2018-Apr-22 18:59N 33°45' W 118°11'0 0.0
2018-Apr-22 18:29N 33°45' W 118°11'0 0.0
2018-Apr-22 17:59N 33°45' W 118°11'0 0.0
2018-Apr-22 17:29N 33°45' W 118°11'0 0.0
2018-Apr-22 16:58N 33°45' W 118°11'0 0.0
2018-Apr-22 16:28N 33°45' W 118°11'0 0.0
2018-Apr-22 15:58N 33°45' W 118°11'0 0.0
2018-Apr-22 15:25N 33°45' W 118°11'0 0.0
2018-Apr-22 14:55N 33°45' W 118°11'0 0.0
2018-Apr-22 14:30N 33°45' W 118°11'0 0.0
2018-Apr-22 14:00N 33°45' W 118°11'0 0.0
2018-Apr-22 13:27N 33°45' W 118°11'0 0.0
2018-Apr-22 13:00N 33°45' W 118°11'0 0.4
2018-Apr-22 12:30N 33°45' W 118°11'3 5.3
2018-Apr-22 12:00N 33°42' W 118°11'510.5
2018-Apr-22 11:30N 33°37' W 118°10'611.4
2018-Apr-22 11:00N 33°32' W 118°08'611.3
2018-Apr-22 10:30N 33°26' W 118°05'510.7
2018-Apr-22 10:00N 33°21' W 118°03'612.1
2018-Apr-22 09:30N 33°16' W 118°00'714.2
2018-Apr-22 09:00N 33°09' W 117°57'714.4
2018-Apr-22 08:30N 33°03' W 117°54'714.3
2018-Apr-22 07:59N 32°56' W 117°51'714.5
2018-Apr-22 07:31N 32°49' W 117°49'714.2
2018-Apr-22 07:00N 32°42' W 117°47'714.3
2018-Apr-22 06:30N 32°35' W 117°45'714.0
2018-Apr-22 06:00N 32°28' W 117°42'713.9
2018-Apr-22 05:30N 32°23' W 117°38'714.4
2018-Apr-22 04:59N 32°17' W 117°32'713.9
2018-Apr-22 04:29N 32°12' W 117°26'815.5
2018-Apr-22 04:00N 32°07' W 117°19'2194.1
2018-Apr-22 04:00N 32°06' W 117°18'612.9 330 / 151017.010.8 15.013.313.0
2018-Apr-22 03:30N 32°03' W 117°12'815.6
2018-Apr-22 03:00N 31°59' W 117°04'915.7
2018-Apr-22 02:26N 31°55' W 116°54'615.3
2018-Apr-22 02:00N 31°52' W 116°47'10 0.7
2018-Apr-21 11:22N 31°51' W 116°59'7 7.3
2018-Apr-21 10:22N 31°49' W 117°07'3 7.3
2018-Apr-21 10:00N 31°48' W 117°10'4 7.1
2018-Apr-21 09:30N 31°47' W 117°14'4 7.3
2018-Apr-21 09:00N 31°46' W 117°18'4 7.2
2018-Apr-21 08:30N 31°45' W 117°22'9 7.4
2018-Apr-21 07:13N 31°43' W 117°33'8 7.0
2018-Apr-21 06:08N 31°41' W 117°42'1 7.0
2018-Apr-21 06:00N 31°41' W 117°43'4 8.0
2018-Apr-21 05:29N 31°39' W 117°47'4 7.8
2018-Apr-21 05:00N 31°37' W 117°51'4 7.9
2018-Apr-21 04:29N 31°34' W 117°54'4 7.6
2018-Apr-21 04:00N 31°31' W 117°57'3283.3
2018-Apr-21 04:00N 31°30' W 117°54'5 9.5 320 / 201019.010.8 15.011.614.0
2018-Apr-21 03:30N 31°28' W 117°59'4 7.4
2018-Apr-21 03:00N 31°25' W 118°01'4 7.2
2018-Apr-21 02:30N 31°21' W 118°03'3 6.4
2018-Apr-21 02:00N 31°19' W 118°05'5 6.6
2018-Apr-21 01:19N 31°23' W 118°08'2 7.4
2018-Apr-21 01:00N 31°24' W 118°06'345.3 300 / 181023.310.8 15.011.616.3
2018-Apr-21 00:55N 31°25' W 118°09'3 7.0
2018-Apr-21 00:30N 31°28' W 118°10'15 6.7
2018-Apr-20 22:15N 31°43' W 118°13'28 4.6
2018-Apr-20 16:00N 31°54' W 117°42'25 8.5 350 / 101021.010.8 14.010.514.0
2018-Apr-20 12:59N 32°19' W 117°46'3 6.9
2018-Apr-20 12:30N 32°22' W 117°47'4 6.9
2018-Apr-20 11:58N 32°26' W 117°47'3 7.0
2018-Apr-20 11:30N 32°29' W 117°47'3 6.9
2018-Apr-20 11:00N 32°33' W 117°48'3 6.7
2018-Apr-20 10:30N 32°36' W 117°48'3 6.8
2018-Apr-20 10:00N 32°39' W 117°49'3 6.8
2018-Apr-20 09:30N 32°43' W 117°51'3 6.7
2018-Apr-20 09:00N 32°46' W 117°52'3 6.8
2018-Apr-20 08:30N 32°49' W 117°53'4 6.7
2018-Apr-20 07:58N 32°52' W 117°55'3 6.8
2018-Apr-20 07:30N 32°55' W 117°56'3 6.6
2018-Apr-20 07:00N 32°58' W 117°57'3 6.6
2018-Apr-20 06:30N 33°02' W 117°59'3 6.6
2018-Apr-20 06:00N 33°05' W 117°60'3 6.6
2018-Apr-20 05:30N 33°08' W 118°01'4 7.0
2018-Apr-20 05:00N 33°11' W 118°03'3 7.0
2018-Apr-20 04:30N 33°14' W 118°04'5 9.6
2018-Apr-20 04:00N 33°18' W 118°00'1611.0 250 / 61019.010.8 13.0 9.413.0
2018-Apr-20 02:32N 33°31' W 118°11'1 9.4
2018-Apr-20 02:29N 33°31' W 118°12'5 9.9
2018-Apr-20 02:01N 33°36' W 118°13'5 9.5
2018-Apr-20 01:31N 33°41' W 118°12'4 8.7
2018-Apr-20 01:00N 33°45' W 118°11'0 0.5
2018-Apr-20 00:25N 33°45' W 118°11'0 0.0
2018-Apr-19 23:55N 33°45' W 118°11'0 0.0
2018-Apr-19 23:28N 33°45' W 118°11'0 0.0
2018-Apr-19 22:51N 33°45' W 118°11'0 0.0
2018-Apr-19 22:30N 33°45' W 118°11'0 0.0
2018-Apr-19 21:55N 33°45' W 118°11'0 0.0
2018-Apr-19 21:30N 33°45' W 118°11'0 0.0
2018-Apr-19 20:17N 33°45' W 118°11'0 0.0
2018-Apr-19 19:50N 33°45' W 118°11'0 0.0
2018-Apr-19 19:23N 33°45' W 118°11'0 0.0
2018-Apr-19 18:56N 33°45' W 118°11'0 0.0
2018-Apr-19 18:22N 33°45' W 118°11'0 0.0
2018-Apr-19 17:58N 33°45' W 118°11'0 0.0
2018-Apr-19 16:06N 33°45' W 118°11'0 0.0
2018-Apr-19 15:54N 33°45' W 118°11'0 0.0
2018-Apr-19 15:30N 33°45' W 118°11'0 0.0
2018-Apr-19 15:00N 33°45' W 118°11'0 0.0
2018-Apr-19 14:27N 33°45' W 118°11'0 0.0
2018-Apr-19 13:54N 33°45' W 118°11'0 0.0
2018-Apr-19 13:26N 33°45' W 118°11'0 0.0
2018-Apr-19 13:00N 33°45' W 118°11'0 0.6
2018-Apr-19 12:30N 33°45' W 118°11'3 6.4
2018-Apr-19 12:00N 33°42' W 118°11'4 8.5
2018-Apr-19 11:30N 33°37' W 118°10'4 7.8
2018-Apr-19 11:00N 33°34' W 118°09'3 6.5
2018-Apr-19 10:30N 33°31' W 118°07'3 6.5
2018-Apr-19 10:00N 33°28' W 118°06'3 7.0
2018-Apr-19 09:30N 33°24' W 118°05'4 6.9
2018-Apr-19 08:55N 33°21' W 118°03'3 6.9
2018-Apr-19 08:30N 33°18' W 118°01'3 6.9
2018-Apr-19 08:00N 33°15' W 117°60'3 6.8
2018-Apr-19 07:30N 33°12' W 117°58'4 7.0
2018-Apr-19 07:00N 33°09' W 117°56'3 6.9
2018-Apr-19 06:30N 33°05' W 117°55'4 7.1
2018-Apr-19 06:00N 33°02' W 117°55'4 7.1
2018-Apr-19 05:30N 32°59' W 117°53'4 7.2
2018-Apr-19 05:00N 32°55' W 117°51'4 7.5
2018-Apr-19 04:30N 32°52' W 117°49'4 7.6
2018-Apr-19 04:00N 32°48' W 117°48'032.6
2018-Apr-19 04:00N 32°48' W 117°48'4 7.5 300 / 201019.010.8 13.0 9.415.0
2018-Apr-19 03:30N 32°44' W 117°48'4 7.8
2018-Apr-19 02:58N 32°40' W 117°47'6 7.8
2018-Apr-19 02:09N 32°34' W 117°46'10 7.8
2018-Apr-19 00:50N 32°24' W 117°45'4 7.7
2018-Apr-19 00:21N 32°20' W 117°45'7 7.6
2018-Apr-18 23:29N 32°13' W 117°45'4 7.6
2018-Apr-18 22:57N 32°09' W 117°45'14 7.5
2018-Apr-18 21:09N 31°56' W 117°43'8 6.5
2018-Apr-18 19:53N 31°48' W 117°44'18 4.6
2018-Apr-18 16:00N 31°36' W 118°00'1311.1 280 / 151021.010.8 15.011.615.0
2018-Apr-18 14:48N 31°46' W 118°10'3 7.3
2018-Apr-18 14:27N 31°46' W 118°13'1940.7
2018-Apr-18 14:00N 31°36' W 117°54'1511.3 270 / 201022.310.8 16.010.816.0
2018-Apr-18 12:41N 31°34' W 118°11'1 6.5
2018-Apr-18 12:30N 31°33' W 118°10'5 6.8
2018-Apr-18 11:50N 31°33' W 118°05'3 6.7
2018-Apr-18 11:26N 31°33' W 118°01'6 6.8
2018-Apr-18 10:36N 31°34' W 117°55'1 6.6
2018-Apr-18 10:30N 31°34' W 117°54'48 7.4
2018-Apr-18 04:00N 31°48' W 117°00'46 2.2 350 / 251019.010.8 13.0 7.415.0
2018-Apr-17 06:50N 32°20' W 117°40'3 9.7
2018-Apr-17 06:30N 32°23' W 117°41'5 9.6
2018-Apr-17 06:00N 32°27' W 117°43'5 9.5
2018-Apr-17 05:30N 32°32' W 117°46'5 9.4
2018-Apr-17 05:00N 32°36' W 117°47'5 9.5
2018-Apr-17 04:30N 32°41' W 117°48'5 9.4
2018-Apr-17 04:00N 32°45' W 117°49'3229.6
2018-Apr-17 04:00N 32°42' W 117°48'816.5 320 / 301023.010.8 13.0 7.415.0
2018-Apr-17 03:30N 32°50' W 117°51'5 9.6
2018-Apr-17 03:00N 32°54' W 117°54'5 9.4
2018-Apr-17 02:30N 32°58' W 117°56'5 9.5
2018-Apr-17 02:00N 33°02' W 117°58'510.1
2018-Apr-17 01:29N 33°06' W 118°03'510.0
2018-Apr-17 01:00N 33°10' W 118°06'610.1
2018-Apr-17 00:27N 33°14' W 118°11'10 1.1
2018-Apr-16 15:53N 33°21' W 118°19'0 0.1
2018-Apr-16 15:26N 33°21' W 118°19'0 0.0
2018-Apr-16 14:16N 33°21' W 118°19'1 3.0
2018-Apr-16 13:51N 33°20' W 118°18'15 6.6
2018-Apr-16 11:38N 33°06' W 118°17'1 6.9
2018-Apr-16 11:27N 33°05' W 118°16'3 6.8
2018-Apr-16 11:00N 33°03' W 118°13'3 6.9
2018-Apr-16 10:30N 33°00' W 118°10'3 7.0
2018-Apr-16 10:00N 32°58' W 118°07'4 7.1
2018-Apr-16 09:30N 32°56' W 118°04'3 7.0
2018-Apr-16 09:00N 32°53' W 118°01'3 6.0
2018-Apr-16 08:26N 32°52' W 117°57'3 6.4
2018-Apr-16 08:00N 32°54' W 117°55'  

Dump ship's entire track history